createdAt,value
2023-02-14T00:00:39.270Z,35.92
2023-02-14T00:03:08.601Z,37.63
2023-02-14T00:05:38.262Z,37.88
2023-02-14T00:08:04.849Z,31.30
2023-02-14T00:10:35.188Z,31.67
2023-02-14T00:13:02.068Z,33.38
2023-02-14T00:15:35.964Z,34.30
2023-02-14T00:18:04.581Z,37.45
2023-02-14T00:20:31.148Z,30.15
2023-02-14T00:22:57.846Z,35.17
2023-02-14T00:25:24.414Z,36.65
2023-02-14T00:27:51.367Z,32.92
2023-02-14T00:30:20.705Z,33.97
2023-02-14T00:32:51.787Z,30.58
2023-02-14T00:35:23.686Z,31.10
2023-02-14T00:40:23.566Z,30.85
2023-02-14T00:42:51.936Z,28.50
2023-02-14T00:45:20.500Z,31.65
2023-02-14T00:47:49.572Z,31.48
2023-02-14T00:50:19.818Z,34.65
2023-02-14T00:52:46.433Z,34.85
2023-02-14T00:55:13.080Z,30.63
2023-02-14T00:57:45.599Z,34.28
2023-02-14T01:00:13.777Z,36.13
2023-02-14T01:02:43.499Z,32.53
2023-02-14T01:05:10.262Z,31.33
2023-02-14T01:07:36.994Z,30.27
2023-02-14T01:10:05.010Z,38.17
2023-02-14T01:15:12.077Z,34.30
2023-02-14T01:17:38.738Z,33.90
2023-02-14T01:20:06.335Z,37.47
2023-02-14T01:22:42.533Z,32.85
2023-02-14T01:25:09.257Z,31.50
2023-02-14T01:27:35.980Z,27.88
2023-02-14T01:30:06.702Z,38.80
2023-02-14T01:32:34.108Z,32.38
2023-02-14T01:35:04.844Z,35.28
2023-02-14T01:37:34.769Z,32.58
2023-02-14T01:40:02.452Z,33.45
2023-02-14T01:42:36.940Z,30.08
2023-02-14T01:45:19.579Z,34.47
2023-02-14T01:47:51.864Z,32.80
2023-02-14T01:50:30.265Z,32.65
2023-02-14T01:53:06.450Z,33.50
2023-02-14T01:55:39.885Z,29.85
2023-02-14T01:58:17.748Z,30.48
2023-02-14T02:00:59.998Z,32.35
2023-02-14T02:03:57.885Z,32.20
2023-02-14T02:06:40.335Z,32.58
2023-02-14T02:09:31.297Z,27.40
2023-02-14T02:12:04.177Z,35.65
2023-02-14T02:14:31.963Z,34.17
2023-02-14T02:17:20.635Z,34.28
2023-02-14T02:20:21.750Z,31.05
2023-02-14T02:23:21.988Z,31.48
2023-02-14T02:26:19.201Z,26.08
2023-02-14T02:28:48.601Z,27.77
2023-02-14T02:31:49.937Z,31.58
2023-02-14T02:34:44.018Z,29.27
2023-02-14T02:37:19.494Z,31.42
2023-02-14T02:40:00.087Z,27.35
2023-02-14T02:42:53.481Z,30.98
2023-02-14T02:45:32.608Z,28.98
2023-02-14T02:48:11.935Z,32.40
2023-02-14T02:51:13.245Z,35.70
2023-02-14T02:54:04.598Z,28.90
2023-02-14T02:56:48.877Z,26.45
2023-02-14T02:59:32.020Z,31.77
2023-02-14T03:02:12.838Z,31.02
2023-02-14T03:04:54.083Z,29.15
2023-02-14T03:07:37.110Z,31.70
2023-02-14T03:10:24.301Z,27.42
2023-02-14T03:13:15.951Z,31.98
2023-02-14T03:16:25.920Z,30.35
2023-02-14T03:19:40.186Z,30.42
2023-02-14T03:22:43.569Z,29.52
2023-02-14T03:25:38.294Z,32.13
2023-02-14T03:28:15.875Z,33.03
2023-02-14T03:31:06.980Z,28.55
2023-02-14T03:33:39.483Z,25.65
2023-02-14T03:36:19.498Z,27.10
2023-02-14T03:39:06.121Z,33.28
2023-02-14T03:41:42.508Z,31.38
2023-02-14T03:44:12.506Z,33.88
2023-02-14T03:47:11.652Z,29.33
2023-02-14T03:49:49.020Z,30.33
2023-02-14T03:52:24.669Z,26.80
2023-02-14T03:54:55.765Z,26.20
2023-02-14T03:57:44.692Z,28.73
2023-02-14T04:00:17.415Z,30.60
2023-02-14T04:03:07.160Z,30.35
2023-02-14T04:05:49.901Z,36.25
2023-02-14T04:08:25.989Z,30.65
2023-02-14T04:10:53.277Z,27.23
2023-02-14T04:13:25.277Z,34.15
2023-02-14T04:15:52.009Z,28.95
2023-02-14T04:18:37.247Z,29.90
2023-02-14T04:21:04.057Z,31.57
2023-02-14T04:23:35.072Z,29.25
2023-02-14T04:26:09.254Z,30.25
2023-02-14T04:28:35.954Z,35.90
2023-02-14T04:31:05.124Z,27.83
2023-02-14T04:33:32.642Z,29.10
2023-02-14T04:36:08.326Z,26.20
2023-02-14T04:38:41.041Z,26.50
2023-02-14T04:41:07.821Z,26.80
2023-02-14T04:43:40.314Z,30.92
2023-02-14T04:46:18.543Z,30.05
2023-02-14T04:48:49.731Z,30.17
2023-02-14T04:51:18.943Z,28.67
2023-02-14T04:53:47.967Z,27.35
2023-02-14T04:56:39.586Z,27.88
2023-02-14T04:59:10.410Z,28.08
2023-02-14T05:01:45.046Z,26.77
2023-02-14T05:04:11.804Z,25.73
2023-02-14T05:06:45.583Z,24.90
2023-02-14T05:09:15.007Z,27.08
2023-02-14T05:11:49.060Z,25.98
2023-02-14T05:14:26.143Z,25.60
2023-02-14T05:16:56.882Z,25.05
2023-02-14T05:19:30.189Z,29.45
2023-02-14T05:22:03.982Z,27.98
2023-02-14T05:24:34.770Z,28.77
2023-02-14T05:27:07.127Z,27.42
2023-02-14T05:29:37.284Z,30.73
2023-02-14T05:32:05.669Z,29.55
2023-02-14T05:34:34.061Z,34.65
2023-02-14T05:37:02.778Z,28.42
2023-02-14T05:39:37.382Z,30.13
2023-02-14T05:42:04.272Z,28.77
2023-02-14T05:44:31.290Z,33.85
2023-02-14T05:46:58.192Z,30.70
2023-02-14T05:49:24.760Z,33.28
2023-02-14T05:51:55.785Z,33.35
2023-02-14T05:54:24.738Z,31.77
2023-02-14T05:56:51.362Z,30.15
2023-02-14T05:59:17.945Z,26.42
2023-02-14T06:01:44.580Z,31.35
2023-02-14T06:04:11.309Z,30.48
2023-02-14T06:06:41.726Z,56.75
2023-02-14T06:09:36.756Z,32.88
2023-02-14T06:12:04.857Z,35.80
2023-02-14T06:14:42.883Z,36.40
2023-02-14T06:17:14.648Z,34.92
2023-02-14T06:19:41.792Z,32.63
2023-02-14T06:22:22.832Z,35.60
2023-02-14T06:24:52.617Z,33.25
2023-02-14T06:27:22.330Z,32.20
2023-02-14T06:29:49.786Z,30.02
2023-02-14T06:32:27.141Z,36.47
2023-02-14T06:34:56.254Z,31.27
2023-02-14T06:37:29.092Z,34.78
2023-02-14T06:39:56.126Z,41.08
2023-02-14T06:42:22.684Z,33.25
2023-02-14T06:44:51.899Z,34.78
2023-02-14T06:47:18.614Z,39.50
2023-02-14T06:49:52.697Z,37.80
2023-02-14T06:52:22.089Z,40.65
2023-02-14T06:54:49.801Z,41.97
2023-02-14T07:00:18.303Z,33.10
2023-02-14T07:02:45.130Z,46.58
2023-02-14T07:05:20.096Z,38.83
2023-02-14T07:07:54.517Z,43.83
2023-02-14T07:10:21.145Z,46.30
2023-02-14T07:12:54.243Z,42.55
2023-02-14T07:15:32.909Z,42.15
2023-02-14T07:17:59.700Z,36.53
2023-02-14T07:20:29.571Z,36.50
2023-02-14T07:23:08.100Z,40.67
2023-02-14T07:25:41.266Z,39.58
2023-02-14T07:28:07.945Z,43.13
2023-02-14T07:30:34.662Z,49.33
2023-02-14T07:33:01.386Z,37.35
2023-02-14T07:35:30.155Z,38.85
2023-02-14T07:37:56.715Z,35.33
2023-02-14T07:40:26.809Z,41.75
2023-02-14T07:42:55.153Z,43.25
2023-02-14T07:45:22.504Z,36.72
2023-02-14T07:47:51.246Z,40.65
2023-02-14T07:53:10.959Z,37.30
2023-02-14T07:55:43.657Z,40.05
2023-02-14T07:58:10.357Z,37.42
2023-02-14T08:00:40.087Z,39.80
2023-02-14T08:03:08.900Z,54.65
2023-02-14T08:05:42.161Z,42.53
2023-02-14T08:08:09.204Z,47.85
2023-02-14T08:10:37.902Z,37.40
2023-02-14T08:13:06.128Z,41.80
2023-02-14T08:18:44.153Z,42.25
2023-02-14T08:21:15.912Z,35.78
2023-02-14T08:23:47.578Z,42.95
2023-02-14T08:26:14.824Z,44.40
2023-02-14T08:28:42.774Z,49.50
2023-02-14T08:31:19.026Z,46.78
2023-02-14T08:33:53.282Z,51.92
2023-02-14T08:36:22.625Z,56.05
2023-02-14T08:38:52.511Z,49.72
2023-02-14T08:41:25.192Z,45.58
2023-02-14T08:43:52.256Z,42.50
2023-02-14T08:46:24.899Z,42.28
2023-02-14T08:49:02.938Z,44.15
2023-02-14T08:51:39.387Z,44.08
2023-02-14T08:54:08.790Z,49.47
2023-02-14T08:56:43.291Z,46.58
2023-02-14T08:59:10.842Z,55.72
2023-02-14T09:01:37.652Z,53.35
2023-02-14T09:04:07.416Z,56.35
2023-02-14T09:06:41.266Z,58.03
2023-02-14T09:09:10.712Z,55.58
2023-02-14T09:11:46.597Z,55.95
2023-02-14T09:14:27.106Z,59.80
2023-02-14T09:16:53.931Z,53.60
2023-02-14T09:19:28.956Z,57.60
2023-02-14T09:21:59.934Z,53.88
2023-02-14T09:24:36.315Z,60.95
2023-02-14T09:27:04.363Z,61.97
2023-02-14T09:29:34.112Z,59.30
2023-02-14T09:32:16.158Z,62.85
2023-02-14T09:35:11.243Z,62.33
2023-02-14T09:37:56.441Z,63.13
2023-02-14T09:40:26.254Z,59.50
2023-02-14T09:43:09.929Z,65.72
2023-02-14T09:45:38.234Z,65.60
2023-02-14T09:48:43.913Z,81.25
2023-02-14T09:51:18.491Z,71.47
2023-02-14T09:54:12.551Z,76.78
2023-02-14T09:57:11.684Z,89.90
2023-02-14T09:59:51.944Z,88.00
2023-02-14T10:02:52.068Z,81.90
2023-02-14T10:05:49.853Z,83.45
2023-02-14T10:08:56.117Z,83.75
2023-02-14T10:11:27.033Z,91.28
2023-02-14T10:13:59.704Z,83.70
2023-02-14T10:16:37.064Z,93.70
2023-02-14T10:19:40.707Z,98.35
2023-02-14T10:22:23.851Z,90.20
2023-02-14T10:25:01.985Z,82.78
2023-02-14T10:27:48.932Z,87.05
2023-02-14T10:30:21.306Z,89.05
2023-02-14T10:32:59.082Z,89.63
2023-02-14T10:35:46.503Z,86.38
2023-02-14T10:38:25.175Z,97.13
2023-02-14T10:41:16.431Z,101.10
2023-02-14T10:44:18.364Z,108.05
2023-02-14T10:47:33.529Z,102.78
2023-02-14T10:50:20.459Z,107.53
2023-02-14T10:53:08.664Z,100.45
2023-02-14T10:56:00.587Z,107.15
2023-02-14T10:58:31.744Z,104.70
2023-02-14T11:01:07.846Z,104.32
2023-02-14T11:04:06.902Z,103.38
2023-02-14T11:06:39.830Z,107.75
2023-02-14T11:09:12.345Z,109.65
2023-02-14T11:11:55.600Z,108.10
2023-02-14T11:14:43.428Z,103.90
2023-02-14T11:17:31.847Z,118.93
2023-02-14T11:20:12.994Z,96.70
2023-02-14T11:22:39.829Z,119.63
2023-02-14T11:25:34.556Z,116.47
2023-02-14T11:28:08.773Z,122.25
2023-02-14T11:30:41.417Z,119.25
2023-02-14T11:33:23.634Z,136.95
2023-02-14T11:38:38.922Z,126.10
2023-02-14T11:41:15.973Z,107.45
2023-02-14T11:43:49.374Z,128.25
2023-02-14T11:46:22.993Z,119.68
2023-02-14T11:49:26.727Z,115.45
2023-02-14T11:51:53.455Z,130.65
2023-02-14T11:54:38.100Z,144.20
2023-02-14T11:57:14.924Z,118.45
2023-02-14T11:59:46.436Z,113.60
2023-02-14T12:02:28.027Z,104.10
2023-02-14T12:05:07.259Z,137.90
2023-02-14T12:07:37.991Z,132.93
2023-02-14T12:10:18.181Z,127.50
2023-02-14T12:13:14.718Z,117.00
2023-02-14T12:15:54.581Z,123.10
2023-02-14T12:18:47.327Z,127.50
2023-02-14T12:21:30.820Z,125.10
2023-02-14T12:24:20.406Z,134.30
2023-02-14T12:26:57.999Z,119.75
2023-02-14T12:29:46.696Z,136.95
2023-02-14T12:32:39.890Z,129.63
2023-02-14T12:35:22.192Z,132.07
2023-02-14T12:38:41.901Z,112.15
2023-02-14T12:41:39.879Z,116.68
2023-02-14T12:44:26.565Z,122.72
2023-02-14T12:47:10.269Z,121.72
2023-02-14T12:50:02.400Z,136.63
2023-02-14T12:52:41.287Z,139.02
2023-02-14T12:55:19.109Z,117.18
2023-02-14T12:58:31.420Z,131.85
2023-02-14T13:01:07.035Z,130.82
2023-02-14T13:04:25.688Z,123.45
2023-02-14T13:07:29.237Z,139.80
2023-02-14T13:13:56.973Z,130.73
2023-02-14T13:16:56.165Z,137.57
2023-02-14T13:20:01.970Z,126.50
2023-02-14T13:22:45.826Z,133.48
2023-02-14T13:25:37.237Z,127.75
2023-02-14T13:28:16.979Z,117.82
2023-02-14T13:30:46.557Z,128.18
2023-02-14T13:33:43.009Z,145.63
2023-02-14T13:36:20.210Z,129.77
2023-02-14T13:38:57.607Z,125.43
2023-02-14T13:41:26.335Z,144.23
2023-02-14T13:44:02.629Z,131.82
2023-02-14T13:46:51.661Z,123.70
2023-02-14T13:49:39.573Z,115.38
2023-02-14T13:52:38.636Z,141.32
2023-02-14T13:55:10.136Z,124.55
2023-02-14T13:57:47.743Z,117.40
2023-02-14T14:00:17.785Z,145.80
2023-02-14T14:02:58.488Z,147.60
2023-02-14T14:05:32.695Z,148.18
2023-02-14T14:08:20.471Z,130.60
2023-02-14T14:11:07.819Z,140.02
2023-02-14T14:14:10.017Z,131.63
2023-02-14T14:16:40.609Z,123.25
2023-02-14T14:19:26.856Z,124.78
2023-02-14T14:22:01.665Z,138.13
2023-02-14T14:24:33.791Z,119.10
2023-02-14T14:27:23.276Z,145.63
2023-02-14T14:30:09.413Z,126.10
2023-02-14T14:32:45.947Z,149.32
2023-02-14T14:35:18.295Z,142.25
2023-02-14T14:37:57.184Z,124.43
2023-02-14T14:40:51.072Z,120.95
2023-02-14T14:43:34.077Z,145.82
2023-02-14T14:46:06.103Z,158.30
2023-02-14T14:48:38.357Z,126.03
2023-02-14T14:51:18.115Z,118.95
2023-02-14T14:54:16.071Z,103.25
2023-02-14T14:57:03.904Z,116.40
2023-02-14T14:59:40.639Z,158.30
2023-02-14T15:02:27.226Z,126.68
2023-02-14T15:04:54.094Z,123.60
2023-02-14T15:07:32.907Z,120.68
2023-02-14T15:10:02.679Z,138.10
2023-02-14T15:12:59.023Z,122.93
2023-02-14T15:15:31.961Z,153.32
2023-02-14T15:17:59.445Z,141.55
2023-02-14T15:20:29.272Z,151.20
2023-02-14T15:22:55.863Z,127.70
2023-02-14T15:25:24.718Z,133.02
2023-02-14T15:27:51.848Z,157.52
2023-02-14T15:30:26.105Z,128.02
2023-02-14T15:33:06.330Z,143.65
2023-02-14T15:35:37.672Z,147.45
2023-02-14T15:38:07.037Z,121.38
2023-02-14T15:40:35.671Z,127.50
2023-02-14T15:43:25.242Z,112.72
2023-02-14T15:46:04.878Z,115.80
2023-02-14T15:48:35.206Z,119.15
2023-02-14T15:51:08.239Z,115.57
2023-02-14T15:53:44.638Z,116.63
2023-02-14T15:56:39.122Z,155.10
2023-02-14T15:59:37.377Z,138.25
2023-02-14T16:02:21.159Z,144.18
2023-02-14T16:05:02.327Z,122.15
2023-02-14T16:07:30.044Z,151.03
2023-02-14T16:10:33.782Z,126.25
2023-02-14T16:13:07.300Z,167.80
2023-02-14T16:15:45.410Z,147.82
2023-02-14T16:18:45.620Z,154.30
2023-02-14T16:21:36.530Z,166.55
2023-02-14T16:24:13.055Z,146.40
2023-02-14T16:26:50.495Z,167.07
2023-02-14T16:29:22.758Z,165.48
2023-02-14T16:34:38.482Z,169.15
2023-02-14T16:37:22.583Z,161.65
2023-02-14T16:39:56.027Z,154.07
2023-02-14T16:42:24.045Z,159.57
2023-02-14T16:44:51.204Z,175.20
2023-02-14T16:47:20.017Z,159.63
2023-02-14T16:49:50.772Z,158.00
2023-02-14T16:52:26.054Z,177.93
2023-02-14T16:54:53.640Z,155.38
2023-02-14T16:57:29.019Z,172.68
2023-02-14T17:00:00.205Z,174.18
2023-02-14T17:02:28.496Z,158.13
2023-02-14T17:04:59.051Z,170.98
2023-02-14T17:07:33.329Z,138.60
2023-02-14T17:10:09.991Z,157.90
2023-02-14T17:12:42.722Z,173.80
2023-02-14T17:15:14.767Z,151.45
2023-02-14T17:20:14.013Z,190.55
2023-02-14T17:22:47.610Z,169.07
2023-02-14T17:25:14.429Z,186.77
2023-02-14T17:27:44.092Z,166.85
2023-02-14T17:30:15.065Z,172.52
2023-02-14T17:32:45.631Z,162.60
2023-02-14T17:35:14.564Z,178.67
2023-02-14T17:37:42.925Z,176.75
2023-02-14T17:40:13.692Z,146.23
2023-02-14T17:42:41.203Z,150.75
2023-02-14T17:45:11.709Z,153.18
2023-02-14T17:47:41.603Z,149.02
2023-02-14T17:50:08.558Z,157.93
2023-02-14T17:52:41.978Z,158.40
2023-02-14T17:55:26.253Z,148.27
2023-02-14T17:57:53.437Z,151.35
2023-02-14T18:00:28.869Z,166.70
2023-02-14T18:05:41.001Z,149.23
2023-02-14T18:08:15.426Z,146.82
2023-02-14T18:10:41.932Z,156.20
2023-02-14T18:13:08.795Z,162.50
2023-02-14T18:15:36.732Z,156.00
2023-02-14T18:18:03.575Z,156.07
2023-02-14T18:20:30.216Z,153.02
2023-02-14T18:23:07.248Z,151.63
2023-02-14T18:25:34.562Z,153.32
2023-02-14T18:28:11.403Z,149.38
2023-02-14T18:30:43.140Z,157.07
2023-02-14T18:33:09.719Z,148.55
2023-02-14T18:35:36.406Z,164.35
2023-02-14T18:38:07.779Z,152.60
2023-02-14T18:40:34.871Z,159.60
2023-02-14T18:43:07.931Z,154.90
2023-02-14T18:45:38.800Z,154.10
2023-02-14T18:48:06.498Z,155.18
2023-02-14T18:50:34.099Z,152.23
2023-02-14T18:53:05.746Z,146.68
2023-02-14T18:55:32.584Z,142.85
2023-02-14T18:58:07.774Z,157.65
2023-02-14T19:00:46.184Z,163.45
2023-02-14T19:03:19.073Z,141.43
2023-02-14T19:05:49.791Z,142.30
2023-02-14T19:08:16.470Z,149.27
2023-02-14T19:10:45.818Z,152.57
2023-02-14T19:13:19.502Z,154.27
2023-02-14T19:15:47.780Z,158.15
2023-02-14T19:18:14.429Z,157.20
2023-02-14T19:20:53.373Z,153.15
2023-02-14T19:23:32.335Z,147.13
2023-02-14T19:26:08.366Z,149.45
2023-02-14T19:28:46.424Z,149.57
2023-02-14T19:31:45.689Z,153.70
2023-02-14T19:34:42.438Z,169.60
2023-02-14T19:40:20.369Z,151.90
2023-02-14T19:42:48.767Z,156.30
2023-02-14T19:45:20.541Z,158.55
2023-02-14T19:47:59.534Z,160.57
2023-02-14T19:50:32.864Z,149.65
2023-02-14T19:53:01.153Z,153.70
2023-02-14T19:55:33.889Z,162.90
2023-02-14T19:58:00.458Z,166.63
2023-02-14T20:00:27.122Z,157.48
2023-02-14T20:02:56.046Z,148.77
2023-02-14T20:05:27.267Z,169.80
2023-02-14T20:07:54.779Z,162.05
2023-02-14T20:10:31.040Z,163.18
2023-02-14T20:13:12.260Z,172.27
2023-02-14T20:15:44.120Z,150.27
2023-02-14T20:18:15.815Z,159.35
2023-02-14T20:21:03.395Z,155.50
2023-02-14T20:23:39.442Z,158.25
2023-02-14T20:26:12.464Z,159.27
2023-02-14T20:28:50.302Z,161.10
2023-02-14T20:31:21.372Z,159.85
2023-02-14T20:33:52.909Z,130.07
2023-02-14T20:36:35.825Z,153.98
2023-02-14T20:39:13.133Z,144.73
2023-02-14T20:41:41.495Z,153.85
2023-02-14T20:44:18.816Z,161.40
2023-02-14T20:47:08.267Z,154.95
2023-02-14T20:49:45.576Z,148.50
2023-02-14T20:53:24.782Z,139.65
2023-02-14T20:55:18.995Z,151.20
2023-02-14T20:58:20.691Z,151.90
2023-02-14T21:01:19.555Z,145.50
2023-02-14T21:03:56.497Z,143.40
2023-02-14T21:06:40.313Z,149.52
2023-02-14T21:09:17.830Z,144.35
2023-02-14T21:12:00.980Z,145.77
2023-02-14T21:14:37.162Z,148.85
2023-02-14T21:17:05.651Z,139.70
2023-02-14T21:19:52.205Z,152.52
2023-02-14T21:22:19.051Z,149.27
2023-02-14T21:24:48.099Z,140.10
2023-02-14T21:27:15.608Z,144.30
2023-02-14T21:29:53.783Z,142.40
2023-02-14T21:32:26.617Z,133.20
2023-02-14T21:35:01.482Z,142.45
2023-02-14T21:37:37.759Z,131.35
2023-02-14T21:40:10.917Z,137.43
2023-02-14T21:42:52.051Z,143.15
2023-02-14T21:45:56.005Z,141.88
2023-02-14T21:48:44.822Z,134.60
2023-02-14T21:51:11.970Z,142.38
2023-02-14T21:53:39.342Z,135.73
2023-02-14T21:56:22.832Z,142.32
2023-02-14T21:58:52.469Z,156.13
2023-02-14T22:01:24.729Z,125.15
2023-02-14T22:03:57.011Z,139.10
2023-02-14T22:06:35.477Z,138.60
2023-02-14T22:09:22.462Z,141.05
2023-02-14T22:11:56.479Z,136.38
2023-02-14T22:14:30.272Z,144.02
2023-02-14T22:16:57.186Z,142.82
2023-02-14T22:19:30.147Z,137.30
2023-02-14T22:22:02.610Z,138.60
2023-02-14T22:24:31.876Z,148.10
2023-02-14T22:26:58.492Z,131.25
2023-02-14T22:29:29.051Z,136.00
2023-02-14T22:31:57.315Z,135.13
2023-02-14T22:34:24.062Z,134.45
2023-02-14T22:37:08.517Z,136.15
2023-02-14T22:39:35.170Z,133.88
2023-02-14T22:42:08.227Z,133.98
2023-02-14T22:44:50.636Z,139.88
2023-02-14T22:47:20.353Z,138.00
2023-02-14T22:49:46.907Z,136.48
2023-02-14T22:52:22.360Z,139.55
2023-02-14T22:54:56.481Z,138.68
2023-02-14T22:57:26.247Z,134.15
2023-02-14T22:59:52.811Z,128.70
2023-02-14T23:02:19.765Z,147.57
2023-02-14T23:04:57.266Z,156.13
2023-02-14T23:07:28.436Z,127.38
2023-02-14T23:10:01.242Z,130.73
2023-02-14T23:12:47.817Z,129.98
2023-02-14T23:18:36.162Z,126.43
2023-02-14T23:21:30.788Z,124.75
2023-02-14T23:23:57.386Z,126.53
2023-02-14T23:26:24.080Z,115.50
2023-02-14T23:28:50.604Z,118.72
2023-02-14T23:31:23.077Z,117.05
2023-02-14T23:33:55.482Z,118.50
2023-02-14T23:36:24.250Z,109.53
2023-02-14T23:38:53.521Z,111.15
2023-02-14T23:41:38.689Z,111.20
2023-02-14T23:44:08.355Z,121.32
2023-02-14T23:46:35.024Z,122.90
2023-02-14T23:49:01.709Z,123.18
2023-02-14T23:51:29.020Z,114.00
2023-02-14T23:54:54.907Z,112.10
2023-02-14T23:56:57.563Z,127.30
2023-02-14T23:59:26.992Z,109.50
